SAVC/CRD METAR and TAF weather

Enter ICAO airport designator
Station Type Date Time Source
SAVC METAR 2020/12/05 05:00 UTC NOAA

SAVC 050500Z 33001KT CAVOK 10/07 Q1020


Station Type Date Time Source
SAVC Decoded METAR 2020/12/05 05:00 UTC NOAA

Comodoro Rivadavia Aerodrome, Argentina (SAVC) 45-47S 067-30W 46M
Dec 05, 2020 - 12:00 AM EST / 2020.12.05 0500 UTC
Wind: from the NNW (330 degrees) at 1 MPH (1 KT):0
Visibility: greater than 7 mile(s):0
Temperature: 50 F (10 C)
Dew Point: 44 F (7 C)
Relative Humidity: 81%
Pressure (altimeter): 30.12 in. Hg (1020 hPa)
ob: SAVC 050500Z 33001KT CAVOK 10/07 Q1020
cycle: 5

Station Type Date Time Source
SAVC TAF 2020/12/05 06:25 UTC NOAA

TAF SAVC 050500Z 0506/0606 29005KT CAVOK TX25/0519Z TN09/0508Z PROB30
TEMPO 0510/0514 VRB03KT
BECMG 0515/0517 07015G25KT
BECMG 0601/0604 27005KT

Example: see airport list